sensor_id;sensor_type;location;lat;lon;timestamp;P1;durP1;ratioP1;P2;durP2;ratioP2
33794;SDS011;51430;52.242;21.118;2024-03-02T00:04:03;36.50;;;31.10;;
33794;SDS011;51430;52.242;21.118;2024-03-02T00:07:40;37.20;;;30.90;;
33794;SDS011;51430;52.242;21.118;2024-03-02T00:10:42;37.50;;;32.10;;
33794;SDS011;51430;52.242;21.118;2024-03-02T00:14:37;36.20;;;31.90;;
33794;SDS011;51430;52.242;21.118;2024-03-02T00:18:24;35.60;;;31.70;;
33794;SDS011;51430;52.242;21.118;2024-03-02T00:21:54;35.40;;;31.10;;
33794;SDS011;51430;52.242;21.118;2024-03-02T00:25:40;33.20;;;26.20;;
33794;SDS011;51430;52.242;21.118;2024-03-02T00:29:40;33.30;;;25.30;;
33794;SDS011;51430;52.242;21.118;2024-03-02T00:33:27;31.60;;;25.70;;
33794;SDS011;51430;52.242;21.118;2024-03-02T00:37:53;32.60;;;25.30;;
33794;SDS011;51430;52.242;21.118;2024-03-02T00:41:58;35.40;;;31.50;;
33794;SDS011;51430;52.242;21.118;2024-03-02T00:45:17;35.40;;;30.80;;
33794;SDS011;51430;52.242;21.118;2024-03-02T00:52:27;37.00;;;31.40;;
33794;SDS011;51430;52.242;21.118;2024-03-02T00:59:51;37.50;;;30.90;;
33794;SDS011;51430;52.242;21.118;2024-03-02T01:03:23;33.60;;;30.00;;
33794;SDS011;51430;52.242;21.118;2024-03-02T01:06:50;35.50;;;30.50;;
33794;SDS011;51430;52.242;21.118;2024-03-02T01:09:48;34.80;;;31.00;;
33794;SDS011;51430;52.242;21.118;2024-03-02T01:19:02;31.00;;;24.40;;
33794;SDS011;51430;52.242;21.118;2024-03-02T01:23:05;30.90;;;25.20;;
33794;SDS011;51430;52.242;21.118;2024-03-02T01:26:52;35.40;;;29.50;;
33794;SDS011;51430;52.242;21.118;2024-03-02T01:34:12;35.70;;;30.80;;
33794;SDS011;51430;52.242;21.118;2024-03-02T01:38:11;32.30;;;25.50;;
33794;SDS011;51430;52.242;21.118;2024-03-02T01:42:31;33.20;;;26.10;;
33794;SDS011;51430;52.242;21.118;2024-03-02T01:45:53;32.30;;;28.80;;
33794;SDS011;51430;52.242;21.118;2024-03-02T01:52:38;32.60;;;28.90;;
33794;SDS011;51430;52.242;21.118;2024-03-02T02:01:23;29.10;;;23.40;;
33794;SDS011;51430;52.242;21.118;2024-03-02T02:06:01;28.90;;;23.70;;
33794;SDS011;51430;52.242;21.118;2024-03-02T02:10:12;30.30;;;24.70;;
33794;SDS011;51430;52.242;21.118;2024-03-02T02:14:51;27.60;;;22.30;;
33794;SDS011;51430;52.242;21.118;2024-03-02T02:18:14;31.70;;;28.10;;
33794;SDS011;51430;52.242;21.118;2024-03-02T02:21:14;31.40;;;28.10;;
33794;SDS011;51430;52.242;21.118;2024-03-02T02:24:24;31.50;;;28.30;;
33794;SDS011;51430;52.242;21.118;2024-03-02T02:32:33;26.30;;;21.90;;
33794;SDS011;51430;52.242;21.118;2024-03-02T02:36:37;27.10;;;22.80;;
33794;SDS011;51430;52.242;21.118;2024-03-02T02:41:03;26.20;;;22.20;;
33794;SDS011;51430;52.242;21.118;2024-03-02T02:51:24;26.70;;;22.50;;
33794;SDS011;51430;52.242;21.118;2024-03-02T02:55:04;28.80;;;22.80;;
33794;SDS011;51430;52.242;21.118;2024-03-02T02:58:58;25.90;;;21.80;;
33794;SDS011;51430;52.242;21.118;2024-03-02T03:03:09;28.60;;;22.10;;
33794;SDS011;51430;52.242;21.118;2024-03-02T03:07:06;27.20;;;21.80;;
33794;SDS011;51430;52.242;21.118;2024-03-02T03:10:49;26.60;;;21.60;;
33794;SDS011;51430;52.242;21.118;2024-03-02T03:18:32;29.40;;;22.70;;
33794;SDS011;51430;52.242;21.118;2024-03-02T03:22:38;29.40;;;22.00;;
33794;SDS011;51430;52.242;21.118;2024-03-02T03:26:30;24.50;;;21.20;;
33794;SDS011;51430;52.242;21.118;2024-03-02T03:34:55;26.00;;;21.60;;
33794;SDS011;51430;52.242;21.118;2024-03-02T03:38:13;29.80;;;26.70;;
33794;SDS011;51430;52.242;21.118;2024-03-02T03:41:46;32.60;;;27.90;;
33794;SDS011;51430;52.242;21.118;2024-03-02T03:45:10;31.70;;;28.30;;
33794;SDS011;51430;52.242;21.118;2024-03-02T03:48:03;31.70;;;28.30;;
33794;SDS011;51430;52.242;21.118;2024-03-02T03:50:58;32.40;;;28.90;;
33794;SDS011;51430;52.242;21.118;2024-03-02T03:54:08;31.20;;;27.90;;
33794;SDS011;51430;52.242;21.118;2024-03-02T03:57:18;32.20;;;28.70;;
33794;SDS011;51430;52.242;21.118;2024-03-02T04:01:02;28.10;;;24.30;;
33794;SDS011;51430;52.242;21.118;2024-03-02T04:04:21;32.00;;;28.70;;
33794;SDS011;51430;52.242;21.118;2024-03-02T04:07:35;34.00;;;29.30;;
33794;SDS011;51430;52.242;21.118;2024-03-02T04:10:49;32.40;;;28.90;;
33794;SDS011;51430;52.242;21.118;2024-03-02T04:15:44;29.10;;;25.30;;
33794;SDS011;51430;52.242;21.118;2024-03-02T04:19:41;28.10;;;22.40;;
33794;SDS011;51430;52.242;21.118;2024-03-02T04:23:09;32.00;;;28.40;;
33794;SDS011;51430;52.242;21.118;2024-03-02T04:26:38;31.60;;;28.20;;
33794;SDS011;51430;52.242;21.118;2024-03-02T04:36:56;31.10;;;27.60;;
33794;SDS011;51430;52.242;21.118;2024-03-02T04:40:06;31.30;;;28.00;;
33794;SDS011;51430;52.242;21.118;2024-03-02T04:43:49;32.20;;;28.80;;
33794;SDS011;51430;52.242;21.118;2024-03-02T04:55:21;30.90;;;27.00;;
33794;SDS011;51430;52.242;21.118;2024-03-02T04:59:09;33.20;;;28.10;;
33794;SDS011;51430;52.242;21.118;2024-03-02T05:03:55;30.00;;;24.00;;
33794;SDS011;51430;52.242;21.118;2024-03-02T05:07:41;32.00;;;27.20;;
33794;SDS011;51430;52.242;21.118;2024-03-02T05:11:24;32.50;;;27.90;;
33794;SDS011;51430;52.242;21.118;2024-03-02T05:14:33;31.60;;;27.80;;
33794;SDS011;51430;52.242;21.118;2024-03-02T05:17:53;31.30;;;27.90;;
33794;SDS011;51430;52.242;21.118;2024-03-02T05:20:42;30.40;;;26.80;;
33794;SDS011;51430;52.242;21.118;2024-03-02T05:23:49;31.50;;;27.60;;
33794;SDS011;51430;52.242;21.118;2024-03-02T05:29:52;30.10;;;23.00;;
33794;SDS011;51430;52.242;21.118;2024-03-02T05:32:52;32.10;;;27.70;;
33794;SDS011;51430;52.242;21.118;2024-03-02T05:35:43;30.80;;;27.30;;
33794;SDS011;51430;52.242;21.118;2024-03-02T05:39:03;30.70;;;26.60;;
33794;SDS011;51430;52.242;21.118;2024-03-02T05:43:31;29.70;;;22.40;;
33794;SDS011;51430;52.242;21.118;2024-03-02T05:47:01;30.00;;;26.10;;
33794;SDS011;51430;52.242;21.118;2024-03-02T05:59:19;27.80;;;21.40;;
33794;SDS011;51430;52.242;21.118;2024-03-02T06:02:43;30.90;;;25.80;;
33794;SDS011;51430;52.242;21.118;2024-03-02T06:05:11;30.50;;;27.20;;
33794;SDS011;51430;52.242;21.118;2024-03-02T06:07:39;30.00;;;26.70;;
33794;SDS011;51430;52.242;21.118;2024-03-02T06:10:07;29.80;;;26.20;;
33794;SDS011;51430;52.242;21.118;2024-03-02T06:12:42;29.20;;;26.10;;
33794;SDS011;51430;52.242;21.118;2024-03-02T06:15:12;31.50;;;26.80;;
33794;SDS011;51430;52.242;21.118;2024-03-02T06:17:46;29.40;;;25.70;;
33794;SDS011;51430;52.242;21.118;2024-03-02T06:20:14;29.50;;;25.30;;
33794;SDS011;51430;52.242;21.118;2024-03-02T06:22:45;31.50;;;26.50;;
33794;SDS011;51430;52.242;21.118;2024-03-02T06:25:48;30.80;;;26.20;;
33794;SDS011;51430;52.242;21.118;2024-03-02T06:28:17;28.90;;;25.80;;
33794;SDS011;51430;52.242;21.118;2024-03-02T06:30:48;29.90;;;26.10;;
33794;SDS011;51430;52.242;21.118;2024-03-02T06:33:20;28.80;;;25.60;;
33794;SDS011;51430;52.242;21.118;2024-03-02T06:35:54;28.50;;;25.30;;
33794;SDS011;51430;52.242;21.118;2024-03-02T06:38:55;29.10;;;25.30;;
33794;SDS011;51430;52.242;21.118;2024-03-02T06:41:34;28.60;;;24.90;;
33794;SDS011;51430;52.242;21.118;2024-03-02T06:44:04;29.30;;;24.80;;
33794;SDS011;51430;52.242;21.118;2024-03-02T06:46:34;28.50;;;25.30;;
33794;SDS011;51430;52.242;21.118;2024-03-02T06:49:02;30.80;;;25.70;;
33794;SDS011;51430;52.242;21.118;2024-03-02T06:51:33;28.90;;;24.40;;
33794;SDS011;51430;52.242;21.118;2024-03-02T06:54:03;26.60;;;23.80;;
33794;SDS011;51430;52.242;21.118;2024-03-02T06:59:49;27.40;;;23.30;;
33794;SDS011;51430;52.242;21.118;2024-03-02T07:02:48;24.80;;;20.00;;
33794;SDS011;51430;52.242;21.118;2024-03-02T07:05:17;28.40;;;23.40;;
33794;SDS011;51430;52.242;21.118;2024-03-02T07:07:46;29.50;;;23.90;;
33794;SDS011;51430;52.242;21.118;2024-03-02T07:11:03;27.30;;;23.50;;
33794;SDS011;51430;52.242;21.118;2024-03-02T07:13:32;27.50;;;24.10;;
33794;SDS011;51430;52.242;21.118;2024-03-02T07:16:02;26.60;;;23.30;;
33794;SDS011;51430;52.242;21.118;2024-03-02T07:18:30;27.20;;;23.60;;
33794;SDS011;51430;52.242;21.118;2024-03-02T07:21:02;26.70;;;22.90;;
33794;SDS011;51430;52.242;21.118;2024-03-02T07:23:52;27.90;;;22.90;;
33794;SDS011;51430;52.242;21.118;2024-03-02T07:26:23;28.70;;;23.00;;
33794;SDS011;51430;52.242;21.118;2024-03-02T07:28:55;26.70;;;22.70;;
33794;SDS011;51430;52.242;21.118;2024-03-02T07:31:44;27.10;;;23.10;;
33794;SDS011;51430;52.242;21.118;2024-03-02T07:34:14;27.50;;;22.80;;
33794;SDS011;51430;52.242;21.118;2024-03-02T07:36:43;26.10;;;22.50;;
33794;SDS011;51430;52.242;21.118;2024-03-02T07:39:11;25.20;;;22.10;;
33794;SDS011;51430;52.242;21.118;2024-03-02T07:41:43;26.50;;;22.40;;
33794;SDS011;51430;52.242;21.118;2024-03-02T07:48:15;22.60;;;18.90;;
33794;SDS011;51430;52.242;21.118;2024-03-02T07:55:04;27.20;;;22.40;;
33794;SDS011;51430;52.242;21.118;2024-03-02T07:58:03;28.20;;;22.40;;
33794;SDS011;51430;52.242;21.118;2024-03-02T08:01:12;26.60;;;21.80;;
33794;SDS011;51430;52.242;21.118;2024-03-02T08:04:24;27.00;;;22.10;;
33794;SDS011;51430;52.242;21.118;2024-03-02T08:10:50;27.40;;;22.60;;
33794;SDS011;51430;52.242;21.118;2024-03-02T08:14:03;27.60;;;22.90;;
33794;SDS011;51430;52.242;21.118;2024-03-02T08:16:35;28.40;;;22.60;;
33794;SDS011;51430;52.242;21.118;2024-03-02T08:20:26;27.20;;;19.50;;
33794;SDS011;51430;52.242;21.118;2024-03-02T08:23:09;28.30;;;23.70;;
33794;SDS011;51430;52.242;21.118;2024-03-02T08:25:42;26.80;;;22.60;;
33794;SDS011;51430;52.242;21.118;2024-03-02T08:28:12;26.80;;;22.50;;
33794;SDS011;51430;52.242;21.118;2024-03-02T08:30:44;29.20;;;23.70;;
33794;SDS011;51430;52.242;21.118;2024-03-02T08:34:44;25.20;;;19.40;;
33794;SDS011;51430;52.242;21.118;2024-03-02T08:38:00;23.30;;;17.20;;
33794;SDS011;51430;52.242;21.118;2024-03-02T08:41:36;27.70;;;22.70;;
33794;SDS011;51430;52.242;21.118;2024-03-02T08:44:06;25.80;;;22.20;;
33794;SDS011;51430;52.242;21.118;2024-03-02T08:46:38;27.40;;;22.10;;
33794;SDS011;51430;52.242;21.118;2024-03-02T08:49:44;28.00;;;21.90;;
33794;SDS011;51430;52.242;21.118;2024-03-02T08:52:13;27.10;;;22.00;;
33794;SDS011;51430;52.242;21.118;2024-03-02T08:55:04;27.40;;;22.10;;
33794;SDS011;51430;52.242;21.118;2024-03-02T08:58:02;26.50;;;21.70;;
33794;SDS011;51430;52.242;21.118;2024-03-02T09:02:38;23.80;;;18.60;;
33794;SDS011;51430;52.242;21.118;2024-03-02T09:06:33;26.90;;;18.70;;
33794;SDS011;51430;52.242;21.118;2024-03-02T09:25:32;26.00;;;19.40;;
33794;SDS011;51430;52.242;21.118;2024-03-02T09:39:10;28.10;;;19.10;;
33794;SDS011;51430;52.242;21.118;2024-03-02T09:42:09;27.70;;;22.30;;
33794;SDS011;51430;52.242;21.118;2024-03-02T09:45:27;29.40;;;22.50;;
33794;SDS011;51430;52.242;21.118;2024-03-02T09:48:33;29.00;;;21.80;;
33794;SDS011;51430;52.242;21.118;2024-03-02T09:52:35;26.30;;;18.90;;
33794;SDS011;51430;52.242;21.118;2024-03-02T09:56:57;26.80;;;19.00;;
33794;SDS011;51430;52.242;21.118;2024-03-02T10:01:06;25.70;;;18.30;;
33794;SDS011;51430;52.242;21.118;2024-03-02T10:05:37;26.30;;;18.90;;
33794;SDS011;51430;52.242;21.118;2024-03-02T10:09:28;29.10;;;18.80;;
33794;SDS011;51430;52.242;21.118;2024-03-02T10:14:18;28.50;;;19.90;;
33794;SDS011;51430;52.242;21.118;2024-03-02T10:18:03;24.50;;;18.00;;
33794;SDS011;51430;52.242;21.118;2024-03-02T10:22:12;27.50;;;19.80;;
33794;SDS011;51430;52.242;21.118;2024-03-02T10:26:16;25.80;;;18.90;;
33794;SDS011;51430;52.242;21.118;2024-03-02T10:29:39;26.80;;;22.00;;
33794;SDS011;51430;52.242;21.118;2024-03-02T10:33:03;26.40;;;22.00;;
33794;SDS011;51430;52.242;21.118;2024-03-02T10:36:21;28.20;;;22.50;;
33794;SDS011;51430;52.242;21.118;2024-03-02T10:41:56;25.80;;;20.00;;
33794;SDS011;51430;52.242;21.118;2024-03-02T10:45:11;25.10;;;21.40;;
33794;SDS011;51430;52.242;21.118;2024-03-02T10:48:21;27.20;;;22.20;;
33794;SDS011;51430;52.242;21.118;2024-03-02T10:51:44;27.40;;;22.90;;
33794;SDS011;51430;52.242;21.118;2024-03-02T10:54:46;27.50;;;23.60;;
33794;SDS011;51430;52.242;21.118;2024-03-02T10:57:55;27.30;;;24.40;;
33794;SDS011;51430;52.242;21.118;2024-03-02T11:01:27;28.80;;;24.30;;
33794;SDS011;51430;52.242;21.118;2024-03-02T11:06:31;27.80;;;22.00;;
33794;SDS011;51430;52.242;21.118;2024-03-02T11:10:48;28.80;;;22.00;;
33794;SDS011;51430;52.242;21.118;2024-03-02T11:13:56;30.50;;;23.60;;
33794;SDS011;51430;52.242;21.118;2024-03-02T11:17:05;32.70;;;27.60;;
33794;SDS011;51430;52.242;21.118;2024-03-02T11:19:41;32.60;;;28.30;;
33794;SDS011;51430;52.242;21.118;2024-03-02T11:22:11;35.10;;;29.40;;
33794;SDS011;51430;52.242;21.118;2024-03-02T11:25:02;35.50;;;29.10;;
33794;SDS011;51430;52.242;21.118;2024-03-02T11:34:55;35.10;;;27.60;;
33794;SDS011;51430;52.242;21.118;2024-03-02T11:38:27;34.20;;;27.40;;
33794;SDS011;51430;52.242;21.118;2024-03-02T11:41:58;33.60;;;27.20;;
33794;SDS011;51430;52.242;21.118;2024-03-02T11:45:37;36.30;;;27.70;;
33794;SDS011;51430;52.242;21.118;2024-03-02T11:50:20;34.50;;;27.50;;
33794;SDS011;51430;52.242;21.118;2024-03-02T11:55:02;31.40;;;25.60;;
33794;SDS011;51430;52.242;21.118;2024-03-02T11:58:31;35.10;;;25.50;;
33794;SDS011;51430;52.242;21.118;2024-03-02T12:02:33;32.00;;;26.90;;
33794;SDS011;51430;52.242;21.118;2024-03-02T12:06:14;32.70;;;26.00;;
33794;SDS011;51430;52.242;21.118;2024-03-02T12:09:11;32.10;;;28.50;;
33794;SDS011;51430;52.242;21.118;2024-03-02T12:12:24;34.40;;;28.80;;
33794;SDS011;51430;52.242;21.118;2024-03-02T12:14:54;31.80;;;28.50;;
33794;SDS011;51430;52.242;21.118;2024-03-02T12:17:27;32.30;;;28.80;;
33794;SDS011;51430;52.242;21.118;2024-03-02T12:19:55;32.40;;;28.80;;
33794;SDS011;51430;52.242;21.118;2024-03-02T12:22:26;31.80;;;28.50;;
33794;SDS011;51430;52.242;21.118;2024-03-02T12:24:53;32.50;;;29.10;;
33794;SDS011;51430;52.242;21.118;2024-03-02T12:27:22;32.00;;;28.60;;
33794;SDS011;51430;52.242;21.118;2024-03-02T12:29:50;32.20;;;28.70;;
33794;SDS011;51430;52.242;21.118;2024-03-02T12:32:18;32.30;;;28.90;;
33794;SDS011;51430;52.242;21.118;2024-03-02T12:34:47;31.60;;;28.20;;
33794;SDS011;51430;52.242;21.118;2024-03-02T12:37:16;31.10;;;27.70;;
33794;SDS011;51430;52.242;21.118;2024-03-02T12:39:47;32.20;;;28.60;;
33794;SDS011;51430;52.242;21.118;2024-03-02T12:42:15;32.50;;;28.30;;
33794;SDS011;51430;52.242;21.118;2024-03-02T12:44:43;31.20;;;27.90;;
33794;SDS011;51430;52.242;21.118;2024-03-02T12:47:12;31.20;;;27.70;;
33794;SDS011;51430;52.242;21.118;2024-03-02T12:49:43;32.20;;;28.20;;
33794;SDS011;51430;52.242;21.118;2024-03-02T12:52:14;31.80;;;28.30;;
33794;SDS011;51430;52.242;21.118;2024-03-02T12:57:45;32.50;;;28.30;;
33794;SDS011;51430;52.242;21.118;2024-03-02T13:02:06;30.50;;;26.60;;
33794;SDS011;51430;52.242;21.118;2024-03-02T13:05:48;28.60;;;23.60;;
33794;SDS011;51430;52.242;21.118;2024-03-02T13:08:26;30.90;;;27.40;;
33794;SDS011;51430;52.242;21.118;2024-03-02T13:10:54;30.60;;;27.40;;
33794;SDS011;51430;52.242;21.118;2024-03-02T13:13:23;30.40;;;27.10;;
33794;SDS011;51430;52.242;21.118;2024-03-02T13:15:55;31.80;;;28.10;;
33794;SDS011;51430;52.242;21.118;2024-03-02T13:18:40;31.10;;;27.60;;
33794;SDS011;51430;52.242;21.118;2024-03-02T13:21:15;31.50;;;28.00;;
33794;SDS011;51430;52.242;21.118;2024-03-02T13:24:17;31.60;;;28.20;;
33794;SDS011;51430;52.242;21.118;2024-03-02T13:26:47;32.10;;;28.60;;
33794;SDS011;51430;52.242;21.118;2024-03-02T13:31:21;30.90;;;26.80;;
33794;SDS011;51430;52.242;21.118;2024-03-02T13:34:42;29.80;;;25.90;;
33794;SDS011;51430;52.242;21.118;2024-03-02T13:38:11;29.30;;;25.80;;
33794;SDS011;51430;52.242;21.118;2024-03-02T13:40:39;32.60;;;29.10;;
33794;SDS011;51430;52.242;21.118;2024-03-02T13:43:08;36.50;;;30.40;;
33794;SDS011;51430;52.242;21.118;2024-03-02T13:45:36;33.10;;;29.50;;
33794;SDS011;51430;52.242;21.118;2024-03-02T13:48:04;33.90;;;30.30;;
33794;SDS011;51430;52.242;21.118;2024-03-02T13:50:33;35.90;;;31.40;;
33794;SDS011;51430;52.242;21.118;2024-03-02T13:53:01;35.00;;;30.70;;
33794;SDS011;51430;52.242;21.118;2024-03-02T14:02:11;33.30;;;29.80;;
33794;SDS011;51430;52.242;21.118;2024-03-02T14:06:13;34.30;;;28.70;;
33794;SDS011;51430;52.242;21.118;2024-03-02T14:09:28;34.20;;;28.00;;
33794;SDS011;51430;52.242;21.118;2024-03-02T14:13:27;35.30;;;29.30;;
33794;SDS011;51430;52.242;21.118;2024-03-02T14:15:55;35.90;;;31.90;;
33794;SDS011;51430;52.242;21.118;2024-03-02T14:18:44;36.60;;;32.80;;
33794;SDS011;51430;52.242;21.118;2024-03-02T14:21:15;36.90;;;32.90;;
33794;SDS011;51430;52.242;21.118;2024-03-02T14:23:44;37.90;;;32.90;;
33794;SDS011;51430;52.242;21.118;2024-03-02T14:27:02;36.00;;;28.30;;
33794;SDS011;51430;52.242;21.118;2024-03-02T14:29:46;37.80;;;31.90;;
33794;SDS011;51430;52.242;21.118;2024-03-02T14:32:14;36.10;;;31.30;;
33794;SDS011;51430;52.242;21.118;2024-03-02T14:34:44;35.40;;;31.00;;
33794;SDS011;51430;52.242;21.118;2024-03-02T14:37:15;36.20;;;32.20;;
33794;SDS011;51430;52.242;21.118;2024-03-02T14:39:43;35.50;;;30.50;;
33794;SDS011;51430;52.242;21.118;2024-03-02T14:42:15;36.80;;;31.50;;
33794;SDS011;51430;52.242;21.118;2024-03-02T14:44:46;35.70;;;31.20;;
33794;SDS011;51430;52.242;21.118;2024-03-02T14:47:23;35.20;;;30.40;;
33794;SDS011;51430;52.242;21.118;2024-03-02T14:49:55;34.50;;;30.80;;
33794;SDS011;51430;52.242;21.118;2024-03-02T14:52:26;34.00;;;30.30;;
33794;SDS011;51430;52.242;21.118;2024-03-02T14:54:57;34.40;;;30.80;;
33794;SDS011;51430;52.242;21.118;2024-03-02T14:57:25;34.60;;;30.50;;
33794;SDS011;51430;52.242;21.118;2024-03-02T15:02:28;35.50;;;28.30;;
33794;SDS011;51430;52.242;21.118;2024-03-02T15:05:58;33.70;;;28.70;;
33794;SDS011;51430;52.242;21.118;2024-03-02T15:08:28;36.10;;;30.40;;
33794;SDS011;51430;52.242;21.118;2024-03-02T15:10:57;35.90;;;32.00;;
33794;SDS011;51430;52.242;21.118;2024-03-02T15:13:40;36.10;;;31.90;;
33794;SDS011;51430;52.242;21.118;2024-03-02T15:16:24;35.40;;;31.50;;
33794;SDS011;51430;52.242;21.118;2024-03-02T15:21:08;34.00;;;28.60;;
33794;SDS011;51430;52.242;21.118;2024-03-02T15:35:12;31.70;;;28.00;;
33794;SDS011;51430;52.242;21.118;2024-03-02T15:37:40;36.90;;;32.90;;
33794;SDS011;51430;52.242;21.118;2024-03-02T15:40:09;38.70;;;32.80;;
33794;SDS011;51430;52.242;21.118;2024-03-02T15:42:38;39.00;;;33.00;;
33794;SDS011;51430;52.242;21.118;2024-03-02T15:45:07;37.10;;;32.90;;
33794;SDS011;51430;52.242;21.118;2024-03-02T15:47:35;39.20;;;33.20;;
33794;SDS011;51430;52.242;21.118;2024-03-02T15:50:05;37.50;;;32.50;;
33794;SDS011;51430;52.242;21.118;2024-03-02T15:52:36;38.10;;;34.00;;
33794;SDS011;51430;52.242;21.118;2024-03-02T15:55:05;37.00;;;33.10;;
33794;SDS011;51430;52.242;21.118;2024-03-02T15:57:35;37.70;;;33.70;;
33794;SDS011;51430;52.242;21.118;2024-03-02T16:00:06;38.20;;;34.00;;
33794;SDS011;51430;52.242;21.118;2024-03-02T16:02:36;38.20;;;34.10;;
33794;SDS011;51430;52.242;21.118;2024-03-02T16:05:04;39.20;;;34.30;;
33794;SDS011;51430;52.242;21.118;2024-03-02T16:07:32;39.20;;;34.90;;
33794;SDS011;51430;52.242;21.118;2024-03-02T16:10:00;40.00;;;35.20;;
33794;SDS011;51430;52.242;21.118;2024-03-02T16:12:34;41.00;;;36.40;;
33794;SDS011;51430;52.242;21.118;2024-03-02T16:15:06;43.00;;;35.50;;
33794;SDS011;51430;52.242;21.118;2024-03-02T16:17:36;39.60;;;35.50;;
33794;SDS011;51430;52.242;21.118;2024-03-02T16:20:06;40.10;;;35.70;;
33794;SDS011;51430;52.242;21.118;2024-03-02T16:22:38;39.30;;;35.00;;
33794;SDS011;51430;52.242;21.118;2024-03-02T16:25:07;40.60;;;35.80;;
33794;SDS011;51430;52.242;21.118;2024-03-02T16:27:37;38.20;;;34.30;;
33794;SDS011;51430;52.242;21.118;2024-03-02T16:30:08;35.90;;;31.90;;
33794;SDS011;51430;52.242;21.118;2024-03-02T16:32:36;39.30;;;33.50;;
33794;SDS011;51430;52.242;21.118;2024-03-02T16:35:06;36.10;;;32.20;;
33794;SDS011;51430;52.242;21.118;2024-03-02T16:37:35;35.90;;;31.90;;
33794;SDS011;51430;52.242;21.118;2024-03-02T16:40:13;37.00;;;33.00;;
33794;SDS011;51430;52.242;21.118;2024-03-02T16:42:42;36.60;;;32.70;;
33794;SDS011;51430;52.242;21.118;2024-03-02T16:45:14;38.00;;;32.50;;
33794;SDS011;51430;52.242;21.118;2024-03-02T16:47:45;38.10;;;32.80;;
33794;SDS011;51430;52.242;21.118;2024-03-02T16:50:17;35.60;;;31.80;;
33794;SDS011;51430;52.242;21.118;2024-03-02T16:52:49;35.50;;;31.90;;
33794;SDS011;51430;52.242;21.118;2024-03-02T16:55:18;38.00;;;32.50;;
33794;SDS011;51430;52.242;21.118;2024-03-02T16:57:46;35.40;;;31.70;;
33794;SDS011;51430;52.242;21.118;2024-03-02T17:00:17;35.40;;;31.40;;
33794;SDS011;51430;52.242;21.118;2024-03-02T17:02:45;33.90;;;30.30;;
33794;SDS011;51430;52.242;21.118;2024-03-02T17:05:13;34.30;;;30.60;;
33794;SDS011;51430;52.242;21.118;2024-03-02T17:07:41;41.00;;;32.10;;
33794;SDS011;51430;52.242;21.118;2024-03-02T17:10:09;36.30;;;32.40;;
33794;SDS011;51430;52.242;21.118;2024-03-02T17:12:38;35.60;;;31.80;;
33794;SDS011;51430;52.242;21.118;2024-03-02T17:15:09;37.50;;;31.50;;
33794;SDS011;51430;52.242;21.118;2024-03-02T17:17:37;36.60;;;31.60;;
33794;SDS011;51430;52.242;21.118;2024-03-02T17:20:06;35.40;;;31.60;;
33794;SDS011;51430;52.242;21.118;2024-03-02T17:22:36;37.40;;;32.30;;
33794;SDS011;51430;52.242;21.118;2024-03-02T17:25:07;37.30;;;31.60;;
33794;SDS011;51430;52.242;21.118;2024-03-02T17:39:54;31.60;;;26.10;;
33794;SDS011;51430;52.242;21.118;2024-03-02T17:58:29;28.30;;;22.60;;
33794;SDS011;51430;52.242;21.118;2024-03-02T18:01:35;33.40;;;27.90;;
33794;SDS011;51430;52.242;21.118;2024-03-02T18:05:03;31.60;;;26.30;;
33794;SDS011;51430;52.242;21.118;2024-03-02T18:12:13;31.20;;;25.50;;
33794;SDS011;51430;52.242;21.118;2024-03-02T18:15:26;35.90;;;31.80;;
33794;SDS011;51430;52.242;21.118;2024-03-02T18:18:47;29.60;;;25.70;;
33794;SDS011;51430;52.242;21.118;2024-03-02T18:21:38;29.40;;;25.00;;
33794;SDS011;51430;52.242;21.118;2024-03-02T18:38:48;27.80;;;20.50;;
33794;SDS011;51430;52.242;21.118;2024-03-02T18:42:16;28.60;;;23.70;;
33794;SDS011;51430;52.242;21.118;2024-03-02T18:45:16;37.10;;;33.00;;
33794;SDS011;51430;52.242;21.118;2024-03-02T18:48:36;29.30;;;24.60;;
33794;SDS011;51430;52.242;21.118;2024-03-02T18:57:35;25.80;;;20.30;;
33794;SDS011;51430;52.242;21.118;2024-03-02T19:01:18;27.60;;;20.90;;
33794;SDS011;51430;52.242;21.118;2024-03-02T19:10:47;24.20;;;20.50;;
33794;SDS011;51430;52.242;21.118;2024-03-02T19:14:45;24.50;;;20.30;;
33794;SDS011;51430;52.242;21.118;2024-03-02T19:17:53;28.50;;;23.00;;
33794;SDS011;51430;52.242;21.118;2024-03-02T19:21:44;25.40;;;22.60;;
33794;SDS011;51430;52.242;21.118;2024-03-02T19:24:54;28.20;;;23.50;;
33794;SDS011;51430;52.242;21.118;2024-03-02T19:40:43;25.90;;;20.50;;
33794;SDS011;51430;52.242;21.118;2024-03-02T20:13:38;25.40;;;20.30;;
33794;SDS011;51430;52.242;21.118;2024-03-02T20:16:55;28.50;;;23.60;;
33794;SDS011;51430;52.242;21.118;2024-03-02T20:19:57;27.80;;;22.60;;
33794;SDS011;51430;52.242;21.118;2024-03-02T20:23:43;27.10;;;23.30;;
33794;SDS011;51430;52.242;21.118;2024-03-02T20:28:57;26.60;;;20.80;;
33794;SDS011;51430;52.242;21.118;2024-03-02T20:33:06;26.80;;;19.90;;
33794;SDS011;51430;52.242;21.118;2024-03-02T20:48:16;28.30;;;24.60;;
33794;SDS011;51430;52.242;21.118;2024-03-02T20:50:44;28.90;;;25.60;;
33794;SDS011;51430;52.242;21.118;2024-03-02T20:53:13;60.80;;;48.50;;
33794;SDS011;51430;52.242;21.118;2024-03-02T20:55:40;31.30;;;26.20;;
33794;SDS011;51430;52.242;21.118;2024-03-02T20:58:06;28.70;;;22.70;;
33794;SDS011;51430;52.242;21.118;2024-03-02T21:00:33;26.60;;;22.30;;
33794;SDS011;51430;52.242;21.118;2024-03-02T21:03:00;25.50;;;22.40;;
33794;SDS011;51430;52.242;21.118;2024-03-02T21:05:27;27.30;;;22.40;;
33794;SDS011;51430;52.242;21.118;2024-03-02T21:07:55;28.90;;;23.50;;
33794;SDS011;51430;52.242;21.118;2024-03-02T21:10:23;24.20;;;21.50;;
33794;SDS011;51430;52.242;21.118;2024-03-02T21:12:50;24.90;;;21.80;;
33794;SDS011;51430;52.242;21.118;2024-03-02T21:15:17;26.40;;;23.30;;
33794;SDS011;51430;52.242;21.118;2024-03-02T21:17:43;25.90;;;22.30;;
33794;SDS011;51430;52.242;21.118;2024-03-02T21:20:13;25.50;;;21.20;;
33794;SDS011;51430;52.242;21.118;2024-03-02T21:22:40;31.20;;;27.10;;
33794;SDS011;51430;52.242;21.118;2024-03-02T21:25:10;26.80;;;22.10;;
33794;SDS011;51430;52.242;21.118;2024-03-02T21:27:40;26.30;;;21.80;;
33794;SDS011;51430;52.242;21.118;2024-03-02T21:30:07;29.50;;;22.40;;
33794;SDS011;51430;52.242;21.118;2024-03-02T21:32:34;25.10;;;21.60;;
33794;SDS011;51430;52.242;21.118;2024-03-02T21:35:01;27.40;;;21.20;;
33794;SDS011;51430;52.242;21.118;2024-03-02T21:37:28;26.00;;;21.80;;
33794;SDS011;51430;52.242;21.118;2024-03-02T21:39:58;29.70;;;21.70;;
33794;SDS011;51430;52.242;21.118;2024-03-02T21:42:24;28.40;;;22.70;;
33794;SDS011;51430;52.242;21.118;2024-03-02T21:44:51;27.90;;;23.20;;
33794;SDS011;51430;52.242;21.118;2024-03-02T21:47:18;27.80;;;21.70;;
33794;SDS011;51430;52.242;21.118;2024-03-02T21:49:46;30.30;;;25.70;;
33794;SDS011;51430;52.242;21.118;2024-03-02T21:52:14;28.00;;;22.60;;
33794;SDS011;51430;52.242;21.118;2024-03-02T21:54:41;26.00;;;21.40;;